Strawberry Valley, California
Current Conditions -  °F | °C
As of 2:00 PM on Friday 24 Oct 2014 (Local Time) from KGOO Reporting Station
Clear Clear  
Wind Chill: 72°   Ceiling: Unl
Heat Index: 72°   Visibility: 10mi
Dew Point: 39°   Wind: 7mph
Humidity: 31%   Direction: 190°S
Pressure: 30"   Gusts: 17mph
Location:  39.56°N, 121.11°W
Report Text: KGOO 242100Z AUTO 19006G15KT 10SM CLR 22/04 A3000 RMK AO1
Loading
Personal Weather Stations






























Interactive Weather Map New forecast layout! Learn more

10-Day Weather Forecast

Advertisements
Track Severe Weather on mobile